Time;durP1;ratioP1;P1;durP2;ratioP2;P2;SDS_P1;SDS_P2;PMS_P1;PMS_P2;Temp;Humidity;BMP_temperature;BMP_pressure;BME280_temperature;BME280_humidity;BME280_pressure;Samples;Min_cycle;Max_cycle;Signal;HPM_P1;HPM_P2
2022/10/07 00:01:22;;;;;;;9.75;2.70;;;7.70;99.90;;;;;;4968377;28;20550;-80
2022/10/07 00:03:47;;;;;;;16.80;3.92;;;7.70;99.90;;;;;;4986301;28;20122;-80
2022/10/07 00:06:15;;;;;;;10.32;2.42;;;7.50;99.90;;;;;;5003687;28;20129;-81
2022/10/07 00:08:45;;;;;;;13.57;3.03;;;7.50;99.90;;;;;;4963528;28;20038;-81
2022/10/07 00:11:19;;;;;;;11.85;2.80;;;7.40;99.90;;;;;;5000826;28;20023;-81
2022/10/07 00:13:45;;;;;;;8.80;2.28;;;7.30;99.90;;;;;;4968953;28;20034;-81
2022/10/07 00:16:16;;;;;;;11.63;3.60;;;7.40;99.90;;;;;;4972385;28;20143;-81
2022/10/07 00:18:41;;;;;;;13.48;2.92;;;7.40;99.90;;;;;;4968686;28;20031;-82
2022/10/07 00:21:10;;;;;;;13.13;2.88;;;7.30;99.90;;;;;;4967307;28;20050;-80
2022/10/07 00:23:36;;;;;;;11.82;4.53;;;7.40;99.90;;;;;;4954144;28;20023;-81
2022/10/07 00:26:02;;;;;;;9.27;2.50;;;7.40;99.90;;;;;;4953582;28;20347;-81
2022/10/07 00:28:28;;;;;;;14.85;3.08;;;7.30;99.90;;;;;;4971586;28;20026;-80
2022/10/07 00:30:58;;;;;;;11.30;2.13;;;7.30;99.90;;;;;;4970088;28;20434;-81
2022/10/07 00:33:24;;;;;;;11.48;2.50;;;7.50;99.90;;;;;;4949422;28;20432;-81
2022/10/07 00:35:49;;;;;;;18.25;3.67;;;7.40;99.90;;;;;;4976944;28;20076;-81
2022/10/07 00:38:15;;;;;;;8.00;2.80;;;7.30;99.90;;;;;;4977676;28;20126;-81
2022/10/07 00:40:40;;;;;;;8.77;3.03;;;7.30;99.90;;;;;;4980042;28;20027;-81
2022/10/07 00:43:26;;;;;;;11.48;3.03;;;7.30;99.90;;;;;;4968273;28;20035;-80
2022/10/07 00:45:53;;;;;;;14.98;4.88;;;7.30;99.90;;;;;;4982600;28;20045;-80
2022/10/07 00:48:21;;;;;;;16.75;3.55;;;7.20;99.90;;;;;;4969415;28;20081;-80
2022/10/07 00:50:48;;;;;;;13.90;3.13;;;7.20;99.90;;;;;;4968552;28;20129;-80
2022/10/07 00:53:14;;;;;;;8.65;3.28;;;7.30;99.90;;;;;;4971385;28;20066;-80
2022/10/07 00:55:39;;;;;;;16.95;3.25;;;7.30;99.90;;;;;;4997000;28;20457;-78
2022/10/07 00:58:08;;;;;;;10.60;2.80;;;7.20;99.90;;;;;;4951171;28;20034;-78
2022/10/07 01:00:34;;;;;;;12.35;3.38;;;7.20;99.90;;;;;;4970109;28;20051;-78
2022/10/07 01:03:00;;;;;;;15.57;3.45;;;7.20;99.90;;;;;;4968128;28;20506;-78
2022/10/07 01:05:26;;;;;;;19.88;3.83;;;7.20;99.90;;;;;;4982048;28;20044;-77
2022/10/07 01:07:51;;;;;;;11.18;2.53;;;7.30;99.90;;;;;;4985020;28;20440;-78
2022/10/07 01:10:18;;;;;;;13.32;3.63;;;7.30;99.90;;;;;;4983945;28;20039;-78
2022/10/07 01:13:08;;;;;;;9.25;3.33;;;7.30;99.90;;;;;;4952415;28;20039;-78
2022/10/07 01:15:58;;;;;;;13.90;3.10;;;7.40;99.90;;;;;;4969709;28;20057;-78
2022/10/07 01:18:35;;;;;;;12.23;3.47;;;7.40;99.90;;;;;;4965187;28;20586;-78
2022/10/07 01:21:22;;;;;;;13.38;3.20;;;7.30;99.90;;;;;;4994384;28;20072;-78
2022/10/07 01:24:21;;;;;;;6.93;3.00;;;7.30;99.90;;;;;;5002890;28;20049;-81
2022/10/07 01:27:19;;;;;;;10.75;3.33;;;7.20;99.90;;;;;;4988240;28;20062;-81
2022/10/07 01:29:56;;;;;;;10.35;3.58;;;7.20;99.90;;;;;;5005993;28;20079;-80
2022/10/07 01:32:30;;;;;;;11.75;3.35;;;7.20;99.90;;;;;;5025766;28;20030;-81
2022/10/07 01:34:56;;;;;;;12.52;4.13;;;7.20;99.90;;;;;;5003541;28;20057;-80
2022/10/07 01:37:22;;;;;;;10.52;3.45;;;7.20;99.90;;;;;;5015385;28;20026;-80
2022/10/07 01:39:50;;;;;;;14.93;3.45;;;7.30;99.90;;;;;;5017138;28;20300;-80
2022/10/07 01:42:15;;;;;;;18.90;4.45;;;7.30;99.90;;;;;;5003011;28;20034;-82
2022/10/07 01:44:42;;;;;;;12.40;4.07;;;7.30;99.90;;;;;;4975710;28;20524;-81
2022/10/07 01:47:07;;;;;;;9.57;3.70;;;7.20;99.90;;;;;;5009140;28;20038;-80
2022/10/07 01:49:33;;;;;;;12.95;3.15;;;7.30;99.90;;;;;;5013679;28;20037;-82
2022/10/07 01:52:04;;;;;;;11.27;3.72;;;7.30;99.90;;;;;;5020388;28;20035;-80
2022/10/07 01:55:08;;;;;;;11.75;4.55;;;7.40;99.90;;;;;;4995633;28;20030;-80
2022/10/07 01:58:01;;;;;;;11.45;3.70;;;7.50;99.90;;;;;;4998135;28;20048;-81
2022/10/07 02:00:28;;;;;;;10.07;3.80;;;7.60;99.90;;;;;;5000665;28;20034;-79
2022/10/07 02:03:12;;;;;;;13.35;4.20;;;7.40;99.90;;;;;;4992008;28;20046;-80
2022/10/07 02:05:46;;;;;;;12.52;4.47;;;7.40;99.90;;;;;;4995314;28;20066;-80
2022/10/07 02:08:30;;;;;;;9.13;3.70;;;7.40;99.90;;;;;;4995437;28;20034;-80
2022/10/07 02:11:35;;;;;;;13.23;3.92;;;7.50;99.90;;;;;;4997017;28;20045;-80
2022/10/07 02:14:15;;;;;;;16.05;3.47;;;7.40;99.90;;;;;;5002085;28;20044;-81
2022/10/07 02:16:45;;;;;;;13.57;3.30;;;7.40;99.90;;;;;;5002733;28;20371;-80
2022/10/07 02:19:22;;;;;;;11.52;3.13;;;7.40;99.90;;;;;;4994383;28;20030;-80
2022/10/07 02:21:49;;;;;;;13.35;3.10;;;7.30;99.90;;;;;;4968264;28;20030;-80
2022/10/07 02:24:15;;;;;;;12.30;3.83;;;7.30;99.90;;;;;;4992640;28;20113;-81
2022/10/07 02:26:40;;;;;;;9.40;3.28;;;7.40;99.90;;;;;;4967462;28;20113;-81
2022/10/07 02:29:06;;;;;;;7.50;2.72;;;7.30;99.90;;;;;;4967672;28;20490;-80
2022/10/07 02:31:32;;;;;;;10.65;4.00;;;7.40;99.90;;;;;;4961125;28;20142;-79
2022/10/07 02:33:58;;;;;;;12.20;3.63;;;7.40;99.90;;;;;;4964719;28;20031;-80
2022/10/07 02:36:39;;;;;;;9.85;3.13;;;7.40;99.90;;;;;;4972532;28;20038;-80
2022/10/07 02:39:05;;;;;;;13.10;3.47;;;7.30;99.90;;;;;;5007215;28;20185;-80
2022/10/07 02:41:55;;;;;;;11.73;2.90;;;7.20;99.90;;;;;;5007685;28;20030;-80
2022/10/07 02:44:33;;;;;;;13.15;2.83;;;7.30;99.90;;;;;;4995053;28;20030;-80
2022/10/07 02:47:13;;;;;;;14.07;2.88;;;7.30;99.90;;;;;;5011663;28;20822;-77
2022/10/07 02:49:39;;;;;;;9.43;2.72;;;7.40;99.90;;;;;;5009681;28;20400;-77
2022/10/07 02:52:06;;;;;;;9.98;2.90;;;7.40;99.90;;;;;;4988932;28;20061;-77
2022/10/07 02:54:35;;;;;;;8.98;2.55;;;7.40;99.90;;;;;;4991259;28;20041;-77
2022/10/07 02:57:00;;;;;;;14.20;3.58;;;7.50;99.90;;;;;;5017987;28;20053;-79
2022/10/07 02:59:26;;;;;;;6.40;2.90;;;7.40;99.90;;;;;;4994287;28;20038;-80
2022/10/07 03:01:54;;;;;;;13.48;3.38;;;7.50;99.90;;;;;;4977178;28;20050;-80
2022/10/07 03:04:21;;;;;;;9.05;3.20;;;7.50;99.90;;;;;;4981900;28;20034;-80
2022/10/07 03:06:47;;;;;;;4.90;2.20;;;7.60;99.90;;;;;;5008321;28;20034;-82
2022/10/07 03:09:13;;;;;;;12.55;3.42;;;7.60;99.90;;;;;;4989921;28;20089;-79
2022/10/07 03:11:39;;;;;;;7.18;2.50;;;7.60;99.90;;;;;;5011231;28;20034;-79
2022/10/07 03:14:05;;;;;;;17.88;4.32;;;7.60;99.90;;;;;;4977900;28;20766;-79
2022/10/07 03:16:30;;;;;;;5.75;2.35;;;7.60;99.90;;;;;;4977512;28;20470;-80
2022/10/07 03:18:57;;;;;;;10.80;3.50;;;7.60;99.90;;;;;;4990417;28;20085;-80
2022/10/07 03:21:23;;;;;;;10.55;3.45;;;7.60;99.90;;;;;;4981981;28;20030;-81
2022/10/07 03:23:51;;;;;;;13.50;3.30;;;7.50;99.90;;;;;;4962054;28;20500;-81
2022/10/07 03:26:18;;;;;;;19.38;3.55;;;7.60;99.90;;;;;;4966302;28;20541;-80
2022/10/07 03:28:43;;;;;;;12.38;2.90;;;7.60;99.90;;;;;;4965104;28;20023;-79
2022/10/07 03:31:10;;;;;;;9.45;2.97;;;7.50;99.90;;;;;;4945172;28;20039;-78
2022/10/07 03:33:36;;;;;;;10.48;3.33;;;7.60;99.90;;;;;;4966240;28;20026;-80
2022/10/07 03:36:02;;;;;;;11.02;2.65;;;7.60;99.90;;;;;;4976303;28;20507;-80
2022/10/07 03:38:28;;;;;;;9.80;2.97;;;7.60;99.90;;;;;;4940940;28;20034;-80
2022/10/07 03:40:53;;;;;;;17.63;2.70;;;7.50;99.90;;;;;;4971164;28;20042;-80
2022/10/07 03:43:19;;;;;;;12.48;3.40;;;7.50;99.90;;;;;;4968891;28;20375;-80
2022/10/07 03:45:48;;;;;;;8.68;2.83;;;7.50;99.90;;;;;;4975116;28;20083;-80
2022/10/07 03:48:13;;;;;;;8.93;2.60;;;7.50;99.90;;;;;;4972037;28;20027;-80
2022/10/07 03:50:39;;;;;;;9.82;2.97;;;7.50;99.90;;;;;;4985898;28;20174;-80
2022/10/07 03:53:04;;;;;;;14.48;2.85;;;7.60;99.90;;;;;;4977435;28;20030;-80
2022/10/07 03:55:30;;;;;;;11.57;2.55;;;7.50;99.90;;;;;;4948950;28;20118;-80
2022/10/07 03:57:56;;;;;;;15.23;2.80;;;7.50;99.90;;;;;;4979258;28;20042;-80
2022/10/07 04:00:23;;;;;;;3.25;1.70;;;7.40;99.90;;;;;;4962744;28;20034;-81
2022/10/07 04:02:51;;;;;;;9.05;3.25;;;7.50;99.90;;;;;;4970349;28;20415;-81
2022/10/07 04:05:17;;;;;;;6.57;2.42;;;7.50;99.90;;;;;;4967721;28;20066;-81
2022/10/07 04:07:46;;;;;;;8.07;3.00;;;7.40;99.90;;;;;;4954525;28;20117;-80
2022/10/07 04:10:14;;;;;;;14.82;3.53;;;7.30;99.90;;;;;;5013429;28;20034;-80
2022/10/07 04:12:40;;;;;;;7.95;2.95;;;7.30;99.90;;;;;;4969857;28;20038;-80
2022/10/07 04:15:06;;;;;;;13.18;3.08;;;7.20;99.90;;;;;;4953594;28;20035;-80
2022/10/07 04:17:31;;;;;;;13.27;3.00;;;7.10;99.90;;;;;;4961381;28;20034;-80
2022/10/07 04:19:57;;;;;;;10.05;3.28;;;7.10;99.90;;;;;;4953609;28;20035;-80
2022/10/07 04:22:23;;;;;;;7.53;2.30;;;7.10;99.90;;;;;;4979803;28;20043;-79
2022/10/07 04:25:32;;;;;;;8.05;2.90;;;7.30;99.90;;;;;;4941916;28;20043;-80
2022/10/07 04:27:35;;;;;;;6.33;2.33;;;7.40;99.90;;;;;;4971880;28;20038;-80
2022/10/07 04:30:01;;;;;;;7.28;1.83;;;7.30;99.90;;;;;;4979059;28;20663;-80
2022/10/07 04:32:26;;;;;;;6.82;2.90;;;7.40;99.90;;;;;;4973816;28;20033;-80
2022/10/07 04:34:52;;;;;;;7.55;2.05;;;7.30;99.90;;;;;;4978504;28;20430;-80
2022/10/07 04:37:18;;;;;;;17.70;2.42;;;7.30;99.90;;;;;;4977403;28;20505;-80
2022/10/07 04:39:43;;;;;;;7.60;2.45;;;7.30;99.90;;;;;;4979989;28;20038;-80
2022/10/07 04:43:17;;;;;;;10.02;2.10;;;7.30;99.90;;;;;;4976712;28;20042;-80
2022/10/07 04:44:54;;;;;;;10.70;2.78;;;7.30;99.90;;;;;;4972666;28;20042;-80
2022/10/07 04:47:20;;;;;;;11.38;1.98;;;7.30;99.90;;;;;;4967989;28;20035;-80
2022/10/07 04:49:45;;;;;;;10.15;2.53;;;7.40;99.90;;;;;;4973907;28;20649;-80
2022/10/07 04:52:11;;;;;;;7.60;2.03;;;7.30;99.90;;;;;;4953180;28;20555;-80
2022/10/07 04:54:38;;;;;;;11.32;2.58;;;7.30;99.90;;;;;;4977653;28;20483;-80
2022/10/07 04:57:03;;;;;;;11.50;2.47;;;7.30;99.90;;;;;;4969475;28;20035;-80
2022/10/07 04:59:29;;;;;;;13.75;1.90;;;7.20;99.90;;;;;;4980567;28;20031;-80
2022/10/07 05:01:55;;;;;;;9.70;1.85;;;7.20;99.90;;;;;;4978833;28;20110;-79
2022/10/07 05:04:20;;;;;;;17.90;3.25;;;7.30;99.90;;;;;;4966801;28;20031;-80
2022/10/07 05:06:46;;;;;;;10.75;2.38;;;7.30;99.90;;;;;;4978235;28;20092;-80
2022/10/07 05:09:11;;;;;;;8.30;2.30;;;7.20;99.90;;;;;;4948917;28;20049;-80
2022/10/07 05:11:37;;;;;;;10.95;2.55;;;7.20;99.90;;;;;;4968213;28;20518;-80
2022/10/07 05:14:02;;;;;;;5.05;2.75;;;7.20;99.90;;;;;;4948739;28;20030;-80
2022/10/07 05:16:28;;;;;;;13.80;2.92;;;7.20;99.90;;;;;;4966998;28;20049;-80
2022/10/07 05:18:54;;;;;;;10.95;2.33;;;7.20;99.90;;;;;;4951555;28;20253;-79
2022/10/07 05:21:20;;;;;;;12.43;2.55;;;7.20;99.90;;;;;;4945960;28;20035;-79
2022/10/07 05:23:47;;;;;;;11.18;2.78;;;7.20;99.90;;;;;;4968801;28;20030;-80
2022/10/07 05:26:13;;;;;;;10.60;2.33;;;7.10;99.90;;;;;;4983582;28;20498;-79
2022/10/07 05:28:39;;;;;;;11.27;2.92;;;6.90;99.90;;;;;;4972880;28;20061;-79
2022/10/07 05:31:07;;;;;;;12.48;4.88;;;7.00;99.90;;;;;;4941080;28;20023;-79
2022/10/07 05:33:32;;;;;;;10.43;3.00;;;7.00;99.90;;;;;;4944627;28;20031;-80
2022/10/07 05:35:58;;;;;;;9.73;2.65;;;7.20;99.90;;;;;;4946637;28;20027;-79
2022/10/07 05:38:24;;;;;;;5.43;2.20;;;7.20;99.90;;;;;;4967409;28;20614;-79
2022/10/07 05:41:00;;;;;;;11.70;2.50;;;7.10;99.90;;;;;;4945031;28;20388;-80
2022/10/07 05:43:26;;;;;;;7.15;2.58;;;7.10;99.90;;;;;;4967647;28;20561;-79
2022/10/07 05:46:02;;;;;;;5.97;2.30;;;7.10;99.90;;;;;;4967964;28;20549;-80
2022/10/07 05:48:30;;;;;;;6.13;2.17;;;7.10;99.90;;;;;;4982861;28;20114;-80
2022/10/07 05:50:56;;;;;;;10.13;2.35;;;7.20;99.90;;;;;;4967307;28;20034;-79
2022/10/07 05:53:23;;;;;;;7.57;2.05;;;7.20;99.90;;;;;;4983826;28;20483;-80
2022/10/07 05:55:50;;;;;;;13.40;2.50;;;7.20;99.90;;;;;;4983242;28;20518;-80
2022/10/07 05:58:17;;;;;;;5.55;2.00;;;7.20;99.90;;;;;;4976107;28;20038;-80
2022/10/07 06:00:53;;;;;;;11.43;2.78;;;7.20;99.90;;;;;;5007027;28;20042;-80
2022/10/07 06:03:19;;;;;;;6.22;2.17;;;7.30;99.90;;;;;;4967976;28;20031;-80
2022/10/07 06:05:46;;;;;;;6.40;1.70;;;7.30;99.90;;;;;;4957575;28;20463;-80
2022/10/07 06:08:11;;;;;;;9.15;2.60;;;7.20;99.90;;;;;;4976375;28;20031;-80
2022/10/07 06:13:23;;;;;;;12.57;3.22;;;7.30;99.90;;;;;;4973427;28;20037;-79
2022/10/07 06:15:49;;;;;;;9.07;2.00;;;7.40;99.90;;;;;;4965180;28;20041;-80
2022/10/07 06:18:15;;;;;;;8.13;2.30;;;7.40;99.90;;;;;;4975633;28;20519;-79
2022/10/07 06:20:40;;;;;;;7.75;2.10;;;7.40;99.90;;;;;;4950967;28;20065;-80
2022/10/07 06:23:06;;;;;;;9.60;2.03;;;7.40;99.90;;;;;;4946052;28;20035;-79
2022/10/07 06:25:33;;;;;;;9.95;2.25;;;7.40;99.90;;;;;;4958370;28;20547;-81
2022/10/07 06:27:59;;;;;;;18.58;2.80;;;7.50;99.90;;;;;;4966203;28;20062;-79
2022/10/07 06:30:25;;;;;;;13.07;2.22;;;7.50;99.90;;;;;;4968591;28;20501;-81
2022/10/07 06:32:51;;;;;;;10.50;2.30;;;7.70;99.90;;;;;;4975704;28;20027;-78
2022/10/07 06:35:16;;;;;;;8.45;2.20;;;7.70;99.90;;;;;;4967146;28;20126;-78
2022/10/07 06:37:42;;;;;;;10.38;2.03;;;7.70;99.90;;;;;;4975558;28;20137;-78
2022/10/07 06:40:08;;;;;;;6.55;1.85;;;7.80;99.90;;;;;;4965827;28;20073;-78
2022/10/07 06:42:34;;;;;;;5.75;1.95;;;7.90;99.90;;;;;;4952586;28;20034;-78
2022/10/07 06:44:59;;;;;;;9.60;2.10;;;7.90;99.90;;;;;;4965081;28;20035;-78
2022/10/07 06:47:25;;;;;;;7.75;1.70;;;8.00;99.90;;;;;;4973470;28;20059;-78
2022/10/07 06:49:50;;;;;;;10.10;2.20;;;8.20;99.90;;;;;;4967172;28;20129;-78
2022/10/07 06:52:16;;;;;;;9.05;2.35;;;8.30;99.90;;;;;;4966167;28;20065;-77
2022/10/07 06:54:41;;;;;;;8.18;2.08;;;8.30;99.90;;;;;;4965164;28;20030;-78
2022/10/07 06:57:07;;;;;;;10.43;2.15;;;8.50;99.90;;;;;;4968794;28;20034;-78
2022/10/07 06:59:33;;;;;;;9.75;2.42;;;8.50;99.90;;;;;;4977008;28;20038;-78
2022/10/07 07:01:58;;;;;;;5.32;2.00;;;8.70;99.90;;;;;;4958059;28;20073;-78
2022/10/07 07:04:24;;;;;;;11.10;2.92;;;8.70;99.90;;;;;;4967377;28;20050;-78
2022/10/07 07:06:50;;;;;;;10.80;2.40;;;8.80;99.90;;;;;;4942166;28;20061;-78
2022/10/07 07:09:15;;;;;;;7.88;2.25;;;8.80;99.90;;;;;;4963841;28;20073;-80
2022/10/07 07:11:43;;;;;;;8.93;2.50;;;9.00;99.90;;;;;;4967844;28;20026;-79
2022/10/07 07:14:10;;;;;;;8.25;2.10;;;9.10;99.90;;;;;;4958523;28;20479;-80
2022/10/07 07:16:36;;;;;;;9.52;1.67;;;9.10;99.90;;;;;;4980694;28;20033;-79
2022/10/07 07:19:07;;;;;;;14.05;2.20;;;9.30;99.90;;;;;;4993302;28;20027;-79
2022/10/07 07:21:33;;;;;;;8.75;1.88;;;9.50;99.90;;;;;;4981979;28;20026;-80
2022/10/07 07:23:59;;;;;;;7.45;2.15;;;9.60;99.90;;;;;;4963643;28;20503;-79
2022/10/07 07:26:26;;;;;;;9.98;2.80;;;9.70;99.90;;;;;;4941933;28;20027;-80
2022/10/07 07:29:02;;;;;;;4.20;1.60;;;9.80;99.90;;;;;;4946510;28;20028;-79
2022/10/07 07:31:30;;;;;;;8.52;1.85;;;9.90;99.90;;;;;;4971702;28;20050;-82
2022/10/07 07:33:59;;;;;;;5.32;1.58;;;10.00;99.90;;;;;;4961963;28;20038;-82
2022/10/07 07:36:25;;;;;;;9.77;1.60;;;10.30;99.90;;;;;;4987369;28;20030;-81
2022/10/07 07:38:51;;;;;;;5.60;1.70;;;10.50;99.90;;;;;;4969693;28;20338;-81
2022/10/07 07:41:19;;;;;;;7.43;1.70;;;10.70;99.90;;;;;;4954720;28;20038;-81
2022/10/07 07:43:52;;;;;;;9.98;2.00;;;10.70;99.90;;;;;;4970750;28;20106;-80
2022/10/07 07:46:19;;;;;;;7.95;1.92;;;10.80;99.90;;;;;;4967947;28;20037;-80
2022/10/07 07:48:45;;;;;;;7.15;1.92;;;10.90;99.90;;;;;;4987121;28;20049;-81
2022/10/07 07:51:12;;;;;;;7.95;1.67;;;11.10;99.90;;;;;;4968803;28;20560;-80
2022/10/07 07:53:38;;;;;;;7.20;1.60;;;11.40;99.90;;;;;;4971473;28;20075;-80
2022/10/07 07:56:03;;;;;;;15.15;2.30;;;11.70;99.90;;;;;;4968806;28;20061;-81
2022/10/07 07:58:29;;;;;;;10.00;1.98;;;12.20;99.90;;;;;;4968359;28;20116;-80
2022/10/07 08:01:07;;;;;;;6.00;1.67;;;12.10;99.90;;;;;;4971803;28;20570;-80
2022/10/07 08:03:36;;;;;;;13.13;2.05;;;12.00;99.90;;;;;;4971312;28;20046;-81
2022/10/07 08:06:02;;;;;;;8.75;2.17;;;12.00;99.90;;;;;;4971316;28;20038;-80
2022/10/07 08:08:28;;;;;;;7.80;2.00;;;12.40;99.90;;;;;;4985145;28;20085;-80
2022/10/07 08:10:54;;;;;;;10.65;2.05;;;12.10;99.90;;;;;;4983779;28;20077;-80
2022/10/07 08:13:20;;;;;;;10.27;2.20;;;12.20;99.90;;;;;;4986286;28;20061;-81
2022/10/07 08:15:45;;;;;;;10.05;2.00;;;12.60;99.90;;;;;;4962505;28;20031;-80
2022/10/07 08:18:11;;;;;;;8.98;2.60;;;12.50;99.90;;;;;;4984557;28;20035;-80
2022/10/07 08:20:36;;;;;;;6.05;1.58;;;12.40;99.90;;;;;;4996568;28;20069;-80
2022/10/07 08:23:03;;;;;;;7.78;2.55;;;12.70;99.90;;;;;;4977081;28;20031;-80
2022/10/07 08:25:30;;;;;;;10.23;2.42;;;12.80;99.90;;;;;;5001189;28;20034;-80
2022/10/07 08:27:55;;;;;;;7.82;1.88;;;13.10;99.90;;;;;;4949299;28;20081;-80
2022/10/07 08:30:22;;;;;;;5.07;1.80;;;13.20;99.90;;;;;;4990168;28;20030;-80
2022/10/07 08:32:48;;;;;;;6.57;1.90;;;13.20;99.90;;;;;;4989203;28;20038;-80
2022/10/07 08:35:14;;;;;;;7.57;1.50;;;13.10;99.90;;;;;;4981404;28;20077;-82
2022/10/07 08:37:39;;;;;;;7.85;1.52;;;13.50;99.90;;;;;;4987914;28;20061;-81
2022/10/07 08:40:05;;;;;;;14.35;2.97;;;13.60;99.90;;;;;;4991282;28;20049;-81
2022/10/07 08:42:36;;;;;;;6.70;1.30;;;14.10;99.90;;;;;;4964116;28;20044;-81
2022/10/07 08:45:02;;;;;;;9.88;1.40;;;13.80;99.90;;;;;;4967559;28;20094;-82
2022/10/07 08:47:33;;;;;;;10.85;1.50;;;14.10;99.90;;;;;;4969796;28;20027;-81
2022/10/07 08:50:20;;;;;;;9.95;2.08;;;14.30;99.90;;;;;;4992827;28;20399;-81
2022/10/07 08:53:01;;;;;;;6.47;1.58;;;14.30;99.90;;;;;;4963492;28;20027;-81
2022/10/07 08:55:35;;;;;;;4.60;1.40;;;14.30;99.90;;;;;;4972955;28;20038;-81
2022/10/07 08:58:32;;;;;;;4.70;1.00;;;15.00;99.90;;;;;;4976433;28;21607;-81
2022/10/07 09:01:16;;;;;;;;;;;15.30;99.90;;;;;;4965193;28;20614;-83
2022/10/07 09:04:21;;;;;;;12.80;1.75;;;15.60;99.90;;;;;;4977994;28;20495;-81
2022/10/07 09:06:56;;;;;;;12.65;1.77;;;15.20;99.90;;;;;;4974358;28;20027;-81
2022/10/07 09:09:24;;;;;;;8.30;1.27;;;15.70;99.90;;;;;;4979440;28;20030;-81
2022/10/07 09:11:50;;;;;;;9.65;1.88;;;15.70;99.90;;;;;;4969195;28;20432;-82
2022/10/07 09:14:30;;;;;;;10.63;1.50;;;16.00;99.90;;;;;;4964970;28;20186;-82
2022/10/07 09:17:07;;;;;;;6.40;1.50;;;16.10;99.90;;;;;;4961106;28;20046;-82
2022/10/07 09:19:37;;;;;;;13.55;2.28;;;16.40;99.90;;;;;;4972489;28;20038;-81
2022/10/07 09:22:14;;;;;;;4.38;1.20;;;16.50;99.90;;;;;;4953685;28;20506;-82
2022/10/07 09:24:41;;;;;;;6.20;1.20;;;16.50;99.90;;;;;;4972279;28;20084;-82
2022/10/07 09:27:13;;;;;;;11.18;2.70;;;16.30;99.90;;;;;;4997662;28;20474;-82
2022/10/07 09:29:38;;;;;;;11.43;2.25;;;16.70;99.90;;;;;;5015719;28;20382;-81
2022/10/07 09:32:04;;;;;;;11.25;1.67;;;16.50;99.90;;;;;;5012101;28;20026;-82
2022/10/07 09:34:29;;;;;;;6.60;1.42;;;16.50;99.90;;;;;;5006374;28;20048;-82
2022/10/07 09:37:12;;;;;;;10.50;2.05;;;16.50;99.90;;;;;;4997645;28;20061;-82
2022/10/07 09:39:37;;;;;;;5.60;1.42;;;17.00;99.90;;;;;;4995047;28;20041;-81
2022/10/07 09:42:04;;;;;;;9.57;2.10;;;17.20;99.90;;;;;;5019153;28;20041;-82
2022/10/07 09:44:29;;;;;;;3.13;0.95;;;17.40;99.90;;;;;;4988645;28;20247;-82
2022/10/07 09:46:56;;;;;;;9.82;1.45;;;17.50;99.90;;;;;;4995155;28;20493;-82
2022/10/07 09:49:34;;;;;;;11.43;1.90;;;17.10;99.90;;;;;;4998221;28;20023;-83
2022/10/07 09:52:16;;;;;;;7.82;1.20;;;17.10;99.90;;;;;;4984879;28;20046;-83
2022/10/07 09:54:43;;;;;;;5.78;2.00;;;17.50;99.90;;;;;;4973724;28;20426;-82
2022/10/07 09:57:24;;;;;;;4.32;1.15;;;17.50;99.90;;;;;;4994122;28;20113;-83
2022/10/07 09:59:50;;;;;;;12.77;1.92;;;17.80;99.90;;;;;;4997676;28;20074;-82
2022/10/07 10:02:21;;;;;;;11.80;2.08;;;18.20;99.90;;;;;;4995372;28;20050;-82
2022/10/07 10:04:47;;;;;;;7.97;1.42;;;17.90;99.90;;;;;;4959640;28;20496;-83
2022/10/07 10:07:22;;;;;;;5.28;1.63;;;18.10;99.90;;;;;;4959098;28;20030;-82
2022/10/07 10:10:02;;;;;;;6.05;1.42;;;18.10;99.90;;;;;;4962301;28;20046;-82
2022/10/07 10:12:28;;;;;;;8.85;1.88;;;18.20;99.90;;;;;;4944902;28;20118;-82
2022/10/07 10:14:55;;;;;;;7.53;1.45;;;18.70;99.70;;;;;;4966522;28;20070;-83
2022/10/07 10:17:27;;;;;;;8.63;1.80;;;18.70;99.40;;;;;;4973787;28;20034;-82
2022/10/07 10:19:55;;;;;;;11.23;1.75;;;19.00;98.20;;;;;;4959361;28;20041;-82
2022/10/07 10:22:28;;;;;;;5.72;1.30;;;19.10;99.30;;;;;;4989832;28;20117;-83
2022/10/07 10:27:45;;;;;;;9.57;1.88;;;19.50;96.10;;;;;;4969082;28;20169;-82
2022/10/07 10:30:19;;;;;;;8.32;1.50;;;19.80;95.00;;;;;;4973992;28;20042;-82
2022/10/07 10:32:54;;;;;;;8.90;1.40;;;19.90;94.90;;;;;;4983670;28;20495;-82
2022/10/07 10:35:30;;;;;;;7.32;1.77;;;19.60;96.90;;;;;;4977369;28;20039;-82
2022/10/07 10:37:59;;;;;;;9.13;1.95;;;19.10;97.10;;;;;;4977079;28;21158;-82
2022/10/07 10:40:47;;;;;;;7.07;1.30;;;19.90;94.50;;;;;;5027442;28;20034;-82
2022/10/07 10:43:20;;;;;;;7.72;1.17;;;20.20;93.00;;;;;;4983628;28;20050;-82
2022/10/07 10:46:01;;;;;;;6.95;1.33;;;19.70;95.20;;;;;;4983676;28;20557;-83
2022/10/07 10:48:58;;;;;;;6.55;1.08;;;20.00;94.40;;;;;;4976609;28;20046;-83
2022/10/07 10:51:33;;;;;;;12.27;1.90;;;20.20;93.40;;;;;;4977158;28;20037;-83
2022/10/07 10:54:30;;;;;;;7.22;1.73;;;20.50;92.80;;;;;;4978672;28;20118;-82
2022/10/07 10:57:25;;;;;;;8.13;2.00;;;20.30;93.90;;;;;;4977837;28;20043;-83
2022/10/07 11:00:14;;;;;;;10.80;1.75;;;20.20;93.90;;;;;;4966172;28;20320;-83
2022/10/07 11:02:58;;;;;;;6.38;1.00;;;20.60;93.70;;;;;;4949493;28;20030;-83
2022/10/07 11:05:39;;;;;;;11.57;3.15;;;20.20;93.80;;;;;;4974732;28;20084;-82
2022/10/07 11:08:16;;;;;;;12.15;2.03;;;20.60;93.10;;;;;;4994623;28;20317;-83
2022/10/07 11:10:55;;;;;;;7.97;1.88;;;20.00;94.60;;;;;;5011820;28;20038;-83
2022/10/07 11:13:50;;;;;;;7.13;0.90;;;20.80;92.00;;;;;;4983377;28;20038;-83
2022/10/07 11:16:24;;;;;;;8.93;1.63;;;21.10;91.70;;;;;;4978670;28;20050;-83
2022/10/07 11:18:54;;;;;;;8.45;1.77;;;21.70;88.60;;;;;;5013410;28;20038;-83
2022/10/07 11:21:43;;;;;;;14.68;2.35;;;21.60;88.10;;;;;;4996020;28;20038;-83
2022/10/07 11:24:14;;;;;;;10.77;2.30;;;21.30;89.10;;;;;;4977899;28;20050;-83
2022/10/07 11:26:56;;;;;;;10.50;1.98;;;21.00;90.50;;;;;;4981921;28;20060;-83
2022/10/07 11:29:21;;;;;;;8.55;2.05;;;21.00;90.60;;;;;;4993587;28;20121;-84
2022/10/07 11:31:53;;;;;;;7.25;1.48;;;21.10;91.00;;;;;;4979985;28;20114;-84
2022/10/07 11:34:50;;;;;;;11.02;1.83;;;21.40;89.20;;;;;;4974524;28;20042;-84
2022/10/07 11:37:20;;;;;;;;;;;21.80;89.00;;;;;;4983888;28;20023;-84
2022/10/07 11:39:46;;;;;;;9.82;1.75;;;22.10;87.90;;;;;;4991683;28;19956;-84
2022/10/07 11:42:15;;;;;;;7.95;1.65;;;22.30;84.80;;;;;;4949878;28;20112;-84
2022/10/07 11:44:54;;;;;;;7.10;1.35;;;21.80;89.10;;;;;;4958367;28;20034;-83
2022/10/07 11:47:22;;;;;;;9.32;2.10;;;21.90;85.80;;;;;;4984024;28;20541;-82
2022/10/07 11:50:01;;;;;;;10.15;2.15;;;22.30;83.50;;;;;;4955570;28;20387;-83
2022/10/07 11:52:29;;;;;;;11.77;2.10;;;22.10;84.20;;;;;;4980277;28;20491;-83
2022/10/07 11:55:09;;;;;;;10.18;2.33;;;22.30;82.50;;;;;;4972142;28;20098;-83
2022/10/07 11:57:41;;;;;;;9.27;2.50;;;22.50;82.40;;;;;;4966567;28;20127;-83
2022/10/07 12:00:07;;;;;;;10.95;2.40;;;22.60;82.00;;;;;;4966732;28;20041;-82
2022/10/07 12:02:43;;;;;;;9.07;2.40;;;22.10;82.40;;;;;;4983132;28;20058;-83
2022/10/07 12:05:34;;;;;;;9.45;2.08;;;22.50;82.60;;;;;;4955718;28;20517;-83
2022/10/07 12:08:18;;;;;;;5.03;1.70;;;22.70;82.80;;;;;;4971593;28;20609;-82
2022/10/07 12:10:44;;;;;;;10.85;2.05;;;22.70;82.30;;;;;;4975378;28;20031;-84
2022/10/07 12:13:09;;;;;;;6.65;2.15;;;22.50;84.00;;;;;;4948797;28;20039;-83
2022/10/07 12:15:40;;;;;;;8.60;1.73;;;22.00;85.50;;;;;;4975304;28;20034;-82
2022/10/07 12:20:54;;;;;;;8.38;1.83;;;22.70;81.00;;;;;;4979961;28;20121;-83
2022/10/07 12:23:24;;;;;;;8.60;2.10;;;22.70;81.80;;;;;;4982507;28;21527;-83
2022/10/07 12:25:54;;;;;;;9.27;1.85;;;22.30;84.70;;;;;;4982941;28;20510;-83
2022/10/07 12:28:27;;;;;;;9.63;1.88;;;22.40;84.40;;;;;;4969253;28;20089;-82
2022/10/07 12:31:00;;;;;;;6.97;1.90;;;22.10;83.70;;;;;;4953831;28;20038;-83
2022/10/07 12:33:44;;;;;;;7.55;1.90;;;21.80;86.10;;;;;;4968077;28;20034;-82
2022/10/07 12:36:22;;;;;;;11.25;1.63;;;21.50;86.90;;;;;;5010766;28;20880;-81
2022/10/07 12:38:59;;;;;;;12.30;2.55;;;22.20;83.60;;;;;;5027684;28;20045;-82
2022/10/07 12:41:42;;;;;;;7.55;2.10;;;22.60;83.40;;;;;;4996289;28;20088;-82
2022/10/07 12:44:25;;;;;;;8.48;1.98;;;22.70;83.20;;;;;;4994240;28;20057;-82
2022/10/07 12:46:55;;;;;;;14.43;2.80;;;22.60;83.10;;;;;;4966401;28;20391;-82
2022/10/07 12:49:28;;;;;;;13.13;2.10;;;22.90;82.00;;;;;;4969702;28;20360;-82
2022/10/07 12:51:54;;;;;;;7.82;1.80;;;22.90;81.80;;;;;;4984523;28;20027;-82
2022/10/07 12:54:28;;;;;;;8.82;1.90;;;23.30;80.10;;;;;;4969034;28;20031;-82
2022/10/07 12:56:54;;;;;;;7.77;2.10;;;23.30;79.60;;;;;;4964290;28;20054;-82
2022/10/07 12:59:47;;;;;;;12.38;1.52;;;22.50;81.30;;;;;;4953892;28;20113;-81
2022/10/07 13:03:01;;;;;;;11.32;2.17;;;23.10;79.50;;;;;;4974671;28;20042;-82
2022/10/07 13:06:04;;;;;;;15.98;2.25;;;23.10;79.80;;;;;;4985635;28;20406;-82
2022/10/07 13:08:30;;;;;;;6.70;1.38;;;23.20;78.70;;;;;;5026040;28;20490;-82
2022/10/07 13:11:29;;;;;;;7.65;1.63;;;23.10;80.50;;;;;;5026712;28;20053;-82
2022/10/07 13:14:00;;;;;;;17.55;2.63;;;22.70;81.80;;;;;;4978200;28;20596;-82
2022/10/07 13:16:34;;;;;;;5.88;1.20;;;22.60;80.90;;;;;;5004737;28;20521;-82